sensor_id;sensor_type;location;lat;lon;timestamp;pressure;altitude;pressure_sealevel;temperature;humidity
70434;BME280;57876;47.792;12.960;2023-01-27T00:02:18;96802.00;;;16.34;37.76
70434;BME280;57876;47.792;12.960;2023-01-27T00:04:42;96803.13;;;16.33;37.65
70434;BME280;57876;47.792;12.960;2023-01-27T00:07:07;96800.41;;;16.33;38.07
70434;BME280;57876;47.792;12.960;2023-01-27T00:09:31;96804.09;;;16.28;37.85
70434;BME280;57876;47.792;12.960;2023-01-27T00:11:56;96807.31;;;16.31;37.53
70434;BME280;57876;47.792;12.960;2023-01-27T00:14:39;96808.75;;;16.28;37.88
70434;BME280;57876;47.792;12.960;2023-01-27T00:17:03;96809.72;;;16.23;37.61
70434;BME280;57876;47.792;12.960;2023-01-27T00:19:27;96815.31;;;16.27;38.07
70434;BME280;57876;47.792;12.960;2023-01-27T00:21:52;96800.53;;;16.19;37.70
70434;BME280;57876;47.792;12.960;2023-01-27T00:24:35;96810.50;;;16.24;38.03
70434;BME280;57876;47.792;12.960;2023-01-27T00:26:59;96807.28;;;16.22;37.69
70434;BME280;57876;47.792;12.960;2023-01-27T00:29:24;96800.09;;;16.17;37.97
70434;BME280;57876;47.792;12.960;2023-01-27T00:31:48;96792.69;;;16.18;38.03
70434;BME280;57876;47.792;12.960;2023-01-27T00:34:31;96791.41;;;16.15;37.62
70434;BME280;57876;47.792;12.960;2023-01-27T00:36:56;96796.53;;;16.17;38.01
70434;BME280;57876;47.792;12.960;2023-01-27T00:39:20;96798.81;;;16.15;38.15
70434;BME280;57876;47.792;12.960;2023-01-27T00:41:44;96783.38;;;16.10;37.99
70434;BME280;57876;47.792;12.960;2023-01-27T00:44:09;96787.41;;;16.13;37.86
70434;BME280;57876;47.792;12.960;2023-01-27T00:46:36;96786.41;;;16.08;38.21
70434;BME280;57876;47.792;12.960;2023-01-27T00:49:00;96782.09;;;16.07;38.05
70434;BME280;57876;47.792;12.960;2023-01-27T00:51:25;96787.25;;;16.09;37.94
70434;BME280;57876;47.792;12.960;2023-01-27T00:53:49;96786.75;;;16.07;37.96
70434;BME280;57876;47.792;12.960;2023-01-27T00:56:13;96776.66;;;16.07;37.67
70434;BME280;57876;47.792;12.960;2023-01-27T00:58:38;96786.75;;;16.07;38.04
70434;BME280;57876;47.792;12.960;2023-01-27T01:01:06;96777.28;;;16.04;38.16
70434;BME280;57876;47.792;12.960;2023-01-27T01:03:32;96784.97;;;16.02;37.80
70434;BME280;57876;47.792;12.960;2023-01-27T01:05:58;96780.16;;;15.99;38.05
70434;BME280;57876;47.792;12.960;2023-01-27T01:08:22;96781.75;;;16.00;37.99
70434;BME280;57876;47.792;12.960;2023-01-27T01:10:47;96793.31;;;15.97;37.97
70434;BME280;57876;47.792;12.960;2023-01-27T01:13:11;96797.97;;;15.97;37.65
70434;BME280;57876;47.792;12.960;2023-01-27T01:15:37;96797.19;;;15.96;38.11
70434;BME280;57876;47.792;12.960;2023-01-27T01:18:03;96793.97;;;15.94;37.79
70434;BME280;57876;47.792;12.960;2023-01-27T01:20:28;96802.16;;;15.94;37.96
70434;BME280;57876;47.792;12.960;2023-01-27T01:22:52;96797.81;;;15.93;38.39
70434;BME280;57876;47.792;12.960;2023-01-27T01:25:17;96792.38;;;15.93;37.79
70434;BME280;57876;47.792;12.960;2023-01-27T01:27:43;96792.69;;;15.92;38.24
70434;BME280;57876;47.792;12.960;2023-01-27T01:30:08;96798.44;;;15.90;38.15
70434;BME280;57876;47.792;12.960;2023-01-27T01:32:33;96800.06;;;15.91;38.32
70434;BME280;57876;47.792;12.960;2023-01-27T01:34:57;96796.84;;;15.89;38.13
70434;BME280;57876;47.792;12.960;2023-01-27T01:37:21;96788.16;;;15.87;38.09
70434;BME280;57876;47.792;12.960;2023-01-27T01:39:46;96796.03;;;15.89;38.44
70434;BME280;57876;47.792;12.960;2023-01-27T01:42:10;96793.63;;;15.87;38.19
70434;BME280;57876;47.792;12.960;2023-01-27T01:44:35;96790.44;;;15.85;37.88
70434;BME280;57876;47.792;12.960;2023-01-27T01:47:00;96787.72;;;15.85;37.87
70434;BME280;57876;47.792;12.960;2023-01-27T01:49:36;96783.84;;;15.86;38.35
70434;BME280;57876;47.792;12.960;2023-01-27T01:52:06;96785.59;;;15.82;38.13
70434;BME280;57876;47.792;12.960;2023-01-27T01:54:36;96785.44;;;15.78;38.12
70434;BME280;57876;47.792;12.960;2023-01-27T01:57:14;96796.50;;;15.82;38.16
70434;BME280;57876;47.792;12.960;2023-01-27T01:59:50;96790.88;;;15.78;38.23
70434;BME280;57876;47.792;12.960;2023-01-27T02:02:18;96784.63;;;15.78;38.19
70434;BME280;57876;47.792;12.960;2023-01-27T02:05:09;96785.13;;;15.80;37.86
70434;BME280;57876;47.792;12.960;2023-01-27T02:07:54;96782.22;;;15.76;38.11
70434;BME280;57876;47.792;12.960;2023-01-27T02:10:20;96783.66;;;15.74;38.00
70434;BME280;57876;47.792;12.960;2023-01-27T02:12:45;96780.28;;;15.77;38.50
70434;BME280;57876;47.792;12.960;2023-01-27T02:15:11;96778.69;;;15.76;38.22
70434;BME280;57876;47.792;12.960;2023-01-27T02:17:36;96780.94;;;15.74;38.15
70434;BME280;57876;47.792;12.960;2023-01-27T02:22:48;96782.06;;;15.73;38.22
70434;BME280;57876;47.792;12.960;2023-01-27T02:27:57;96776.44;;;15.69;38.04
70434;BME280;57876;47.792;12.960;2023-01-27T02:30:21;96774.53;;;15.70;38.24
70434;BME280;57876;47.792;12.960;2023-01-27T02:32:46;96771.78;;;15.70;38.38
70434;BME280;57876;47.792;12.960;2023-01-27T02:35:14;96766.63;;;15.68;38.27
70434;BME280;57876;47.792;12.960;2023-01-27T02:37:40;96757.00;;;15.62;38.36
70434;BME280;57876;47.792;12.960;2023-01-27T02:40:05;96766.34;;;15.70;38.11
70434;BME280;57876;47.792;12.960;2023-01-27T02:42:31;96771.00;;;15.69;38.29
70434;BME280;57876;47.792;12.960;2023-01-27T02:44:55;96765.03;;;15.67;38.34
70434;BME280;57876;47.792;12.960;2023-01-27T02:47:19;96757.53;;;15.73;38.36
70434;BME280;57876;47.792;12.960;2023-01-27T02:49:44;96765.84;;;15.76;38.20
70434;BME280;57876;47.792;12.960;2023-01-27T02:52:08;96762.34;;;15.76;38.41
70434;BME280;57876;47.792;12.960;2023-01-27T02:54:33;96766.03;;;15.80;38.16
70434;BME280;57876;47.792;12.960;2023-01-27T02:56:57;96751.44;;;15.76;38.58
70434;BME280;57876;47.792;12.960;2023-01-27T02:59:22;96763.78;;;15.82;38.33
70434;BME280;57876;47.792;12.960;2023-01-27T03:01:46;96761.03;;;15.82;38.21
70434;BME280;57876;47.792;12.960;2023-01-27T03:04:11;96748.06;;;15.79;38.41
70434;BME280;57876;47.792;12.960;2023-01-27T03:06:35;96756.09;;;15.84;38.22
70434;BME280;57876;47.792;12.960;2023-01-27T03:09:00;96745.81;;;15.81;38.40
70434;BME280;57876;47.792;12.960;2023-01-27T03:11:24;96749.84;;;15.83;38.25
70434;BME280;57876;47.792;12.960;2023-01-27T03:14:08;96746.31;;;15.83;38.22
70434;BME280;57876;47.792;12.960;2023-01-27T03:16:32;96746.31;;;15.83;38.57
70434;BME280;57876;47.792;12.960;2023-01-27T03:19:15;96734.28;;;15.84;38.22
70434;BME280;57876;47.792;12.960;2023-01-27T03:21:40;96747.09;;;15.83;38.11
70434;BME280;57876;47.792;12.960;2023-01-27T03:24:04;96743.59;;;15.83;38.04
70434;BME280;57876;47.792;12.960;2023-01-27T03:26:29;96753.50;;;15.88;38.28
70434;BME280;57876;47.792;12.960;2023-01-27T03:28:53;96744.06;;;15.85;38.40
70434;BME280;57876;47.792;12.960;2023-01-27T03:31:36;96747.75;;;15.89;38.35
70434;BME280;57876;47.792;12.960;2023-01-27T03:34:00;96750.31;;;15.85;38.44
70434;BME280;57876;47.792;12.960;2023-01-27T03:36:25;96748.41;;;15.86;38.03
70434;BME280;57876;47.792;12.960;2023-01-27T03:39:07;96749.34;;;15.90;38.13
70434;BME280;57876;47.792;12.960;2023-01-27T03:41:50;96742.59;;;15.88;38.29
70434;BME280;57876;47.792;12.960;2023-01-27T03:44:33;96742.94;;;15.86;38.19
70434;BME280;57876;47.792;12.960;2023-01-27T03:47:16;96734.28;;;15.84;38.39
70434;BME280;57876;47.792;12.960;2023-01-27T03:49:40;96733.97;;;15.85;38.38
70434;BME280;57876;47.792;12.960;2023-01-27T03:52:05;96737.63;;;15.90;38.77
70434;BME280;57876;47.792;12.960;2023-01-27T03:54:29;96740.69;;;15.88;38.15
70434;BME280;57876;47.792;12.960;2023-01-27T03:56:54;96729.59;;;15.84;38.31
70434;BME280;57876;47.792;12.960;2023-01-27T03:59:18;96750.97;;;15.91;38.33
70434;BME280;57876;47.792;12.960;2023-01-27T04:01:43;96737.63;;;15.90;38.85
70434;BME280;57876;47.792;12.960;2023-01-27T04:04:08;96735.06;;;15.84;38.80
70434;BME280;57876;47.792;12.960;2023-01-27T04:06:52;96751.75;;;15.92;38.51
70434;BME280;57876;47.792;12.960;2023-01-27T04:09:26;96749.97;;;15.87;38.98
70434;BME280;57876;47.792;12.960;2023-01-27T04:11:51;96746.16;;;15.88;38.53
70434;BME280;57876;47.792;12.960;2023-01-27T04:14:18;96757.22;;;15.92;38.75
70434;BME280;57876;47.792;12.960;2023-01-27T04:16:43;96752.06;;;15.90;38.40
70434;BME280;57876;47.792;12.960;2023-01-27T04:19:09;96756.41;;;15.91;38.32
70434;BME280;57876;47.792;12.960;2023-01-27T04:21:34;96756.41;;;15.91;38.39
70434;BME280;57876;47.792;12.960;2023-01-27T04:23:58;96763.97;;;15.94;38.51
70434;BME280;57876;47.792;12.960;2023-01-27T04:26:23;96754.78;;;15.90;38.12
70434;BME280;57876;47.792;12.960;2023-01-27T04:28:48;96760.75;;;15.92;38.69
70434;BME280;57876;47.792;12.960;2023-01-27T04:31:13;96750.97;;;15.91;38.48
70434;BME280;57876;47.792;12.960;2023-01-27T04:33:38;96750.78;;;15.88;38.69
70434;BME280;57876;47.792;12.960;2023-01-27T04:36:03;96761.22;;;15.94;38.67
70434;BME280;57876;47.792;12.960;2023-01-27T04:38:28;96751.75;;;15.92;38.63
70434;BME280;57876;47.792;12.960;2023-01-27T04:40:52;96759.63;;;15.93;38.92
70434;BME280;57876;47.792;12.960;2023-01-27T04:43:16;96765.09;;;15.93;38.48
70434;BME280;57876;47.792;12.960;2023-01-27T04:45:41;96760.25;;;15.90;38.61
70434;BME280;57876;47.792;12.960;2023-01-27T04:48:05;96764.25;;;15.93;38.38
70434;BME280;57876;47.792;12.960;2023-01-27T04:50:30;96759.31;;;15.86;38.93
70434;BME280;57876;47.792;12.960;2023-01-27T04:52:55;96775.81;;;15.90;38.59
70434;BME280;57876;47.792;12.960;2023-01-27T04:55:19;96771.66;;;15.92;38.45
70434;BME280;57876;47.792;12.960;2023-01-27T04:57:43;96776.31;;;15.92;38.67
70434;BME280;57876;47.792;12.960;2023-01-27T05:00:09;96765.72;;;15.90;38.36
70434;BME280;57876;47.792;12.960;2023-01-27T05:02:34;96775.50;;;15.91;38.87
70434;BME280;57876;47.792;12.960;2023-01-27T05:04:58;96776.16;;;15.97;38.65
70434;BME280;57876;47.792;12.960;2023-01-27T05:07:27;96776.94;;;15.97;38.55
70434;BME280;57876;47.792;12.960;2023-01-27T05:09:52;96770.06;;;16.00;38.43
70434;BME280;57876;47.792;12.960;2023-01-27T05:12:16;96768.63;;;16.02;38.91
70434;BME280;57876;47.792;12.960;2023-01-27T05:14:40;96769.41;;;16.03;38.84
70434;BME280;57876;47.792;12.960;2023-01-27T05:17:05;96774.56;;;16.04;38.76
70434;BME280;57876;47.792;12.960;2023-01-27T05:19:29;96763.97;;;16.03;38.45
70434;BME280;57876;47.792;12.960;2023-01-27T05:21:53;96773.75;;;16.04;38.68
70434;BME280;57876;47.792;12.960;2023-01-27T05:24:18;96778.09;;;16.05;38.69
70434;BME280;57876;47.792;12.960;2023-01-27T05:26:42;96777.59;;;16.03;38.54
70434;BME280;57876;47.792;12.960;2023-01-27T05:29:07;96762.66;;;16.00;38.96
70434;BME280;57876;47.792;12.960;2023-01-27T05:31:32;96767.66;;;15.98;38.82
70434;BME280;57876;47.792;12.960;2023-01-27T05:33:58;96769.91;;;15.96;38.88
70434;BME280;57876;47.792;12.960;2023-01-27T05:36:24;96767.47;;;15.95;38.59
70434;BME280;57876;47.792;12.960;2023-01-27T05:38:49;96786.56;;;16.03;38.59
70434;BME280;57876;47.792;12.960;2023-01-27T05:41:15;96785.47;;;16.04;38.59
70434;BME280;57876;47.792;12.960;2023-01-27T05:43:42;96797.34;;;16.08;38.81
70434;BME280;57876;47.792;12.960;2023-01-27T05:46:09;96794.44;;;16.05;38.98
70434;BME280;57876;47.792;12.960;2023-01-27T05:48:35;96793.00;;;16.07;38.67
70434;BME280;57876;47.792;12.960;2023-01-27T05:51:00;96791.25;;;16.12;38.58
70434;BME280;57876;47.792;12.960;2023-01-27T05:53:24;96800.25;;;16.12;38.96
70434;BME280;57876;47.792;12.960;2023-01-27T05:55:50;96806.66;;;16.16;38.86
70434;BME280;57876;47.792;12.960;2023-01-27T05:58:15;96801.84;;;16.22;38.84
70434;BME280;57876;47.792;12.960;2023-01-27T06:00:40;96790.13;;;16.21;38.61
70434;BME280;57876;47.792;12.960;2023-01-27T06:03:04;96789.31;;;16.21;38.82
70434;BME280;57876;47.792;12.960;2023-01-27T06:05:29;96794.63;;;16.26;38.88
70434;BME280;57876;47.792;12.960;2023-01-27T06:07:53;96799.28;;;16.34;38.98
70434;BME280;57876;47.792;12.960;2023-01-27T06:10:18;96798.97;;;16.36;38.48
70434;BME280;57876;47.792;12.960;2023-01-27T06:12:42;96774.72;;;16.34;38.70
70434;BME280;57876;47.792;12.960;2023-01-27T06:15:07;96785.94;;;16.41;39.19
70434;BME280;57876;47.792;12.960;2023-01-27T06:17:32;96779.03;;;16.44;38.80
70434;BME280;57876;47.792;12.960;2023-01-27T06:19:57;96787.38;;;16.47;39.00
70434;BME280;57876;47.792;12.960;2023-01-27T06:22:21;96784.00;;;16.50;38.62
70434;BME280;57876;47.792;12.960;2023-01-27T06:24:46;96775.81;;;16.50;38.67
70434;BME280;57876;47.792;12.960;2023-01-27T06:27:10;96777.88;;;16.54;38.46
70434;BME280;57876;47.792;12.960;2023-01-27T06:29:34;96772.44;;;16.54;39.00
70434;BME280;57876;47.792;12.960;2023-01-27T06:31:59;96769.38;;;16.55;38.91
70434;BME280;57876;47.792;12.960;2023-01-27T06:34:23;96777.41;;;16.60;38.73
70434;BME280;57876;47.792;12.960;2023-01-27T06:36:47;96782.06;;;16.60;39.04
70434;BME280;57876;47.792;12.960;2023-01-27T06:39:12;96780.31;;;16.55;38.97
70434;BME280;57876;47.792;12.960;2023-01-27T06:41:36;96784.31;;;16.58;39.13
70434;BME280;57876;47.792;12.960;2023-01-27T06:44:01;96793.16;;;16.63;38.80
70434;BME280;57876;47.792;12.960;2023-01-27T06:46:26;96799.41;;;16.64;38.69
70434;BME280;57876;47.792;12.960;2023-01-27T06:48:50;96789.63;;;16.63;38.87
70434;BME280;57876;47.792;12.960;2023-01-27T06:51:14;96791.88;;;16.61;38.43
70434;BME280;57876;47.792;12.960;2023-01-27T06:53:39;96798.75;;;16.67;38.54
70434;BME280;57876;47.792;12.960;2023-01-27T06:56:04;96804.22;;;16.67;38.93
70434;BME280;57876;47.792;12.960;2023-01-27T06:58:28;96809.03;;;16.70;38.55
70434;BME280;57876;47.792;12.960;2023-01-27T07:00:54;96800.38;;;16.68;39.20
70434;BME280;57876;47.792;12.960;2023-01-27T07:03:18;96807.44;;;16.69;38.72
70434;BME280;57876;47.792;12.960;2023-01-27T07:05:43;96798.59;;;16.63;39.02
70434;BME280;57876;47.792;12.960;2023-01-27T07:08:07;96812.41;;;16.67;38.80
70434;BME280;57876;47.792;12.960;2023-01-27T07:10:32;96816.09;;;16.71;39.00
70434;BME280;57876;47.792;12.960;2023-01-27T07:13:07;96814.47;;;16.70;39.03
70434;BME280;57876;47.792;12.960;2023-01-27T07:15:32;96818.84;;;16.71;38.92
70434;BME280;57876;47.792;12.960;2023-01-27T07:18:00;96808.22;;;16.69;39.14
70434;BME280;57876;47.792;12.960;2023-01-27T07:20:24;96819.31;;;16.73;38.81
70434;BME280;57876;47.792;12.960;2023-01-27T07:22:51;96831.22;;;16.77;38.95
70434;BME280;57876;47.792;12.960;2023-01-27T07:25:16;96825.75;;;16.77;38.67
70434;BME280;57876;47.792;12.960;2023-01-27T07:27:40;96824.66;;;16.78;38.49
70434;BME280;57876;47.792;12.960;2023-01-27T07:30:05;96833.63;;;16.79;38.57
70434;BME280;57876;47.792;12.960;2023-01-27T07:32:30;96835.56;;;16.78;38.84
70434;BME280;57876;47.792;12.960;2023-01-27T07:34:54;96842.94;;;16.78;38.72
70434;BME280;57876;47.792;12.960;2023-01-27T07:37:19;96837.97;;;16.80;39.01
70434;BME280;57876;47.792;12.960;2023-01-27T07:39:43;96849.22;;;16.78;38.89
70434;BME280;57876;47.792;12.960;2023-01-27T07:42:08;96843.78;;;16.78;39.19
70434;BME280;57876;47.792;12.960;2023-01-27T07:44:33;96842.16;;;16.77;38.78
70434;BME280;57876;47.792;12.960;2023-01-27T07:46:58;96853.88;;;16.78;38.98
70434;BME280;57876;47.792;12.960;2023-01-27T07:49:22;96845.97;;;16.76;38.97
70434;BME280;57876;47.792;12.960;2023-01-27T07:51:47;96845.97;;;16.76;38.88
70434;BME280;57876;47.792;12.960;2023-01-27T07:54:11;96846.16;;;16.80;38.79
70434;BME280;57876;47.792;12.960;2023-01-27T07:56:36;96842.16;;;16.77;38.72
70434;BME280;57876;47.792;12.960;2023-01-27T07:59:01;96840.53;;;16.76;38.88
70434;BME280;57876;47.792;12.960;2023-01-27T08:01:25;96836.03;;;16.80;38.63
70434;BME280;57876;47.792;12.960;2023-01-27T08:03:50;96832.00;;;16.78;38.98
70434;BME280;57876;47.792;12.960;2023-01-27T08:06:14;96837.66;;;16.81;39.13
70434;BME280;57876;47.792;12.960;2023-01-27T08:08:39;96830.41;;;16.77;38.68
70434;BME280;57876;47.792;12.960;2023-01-27T08:11:06;96841.66;;;16.84;38.71
70434;BME280;57876;47.792;12.960;2023-01-27T08:13:31;96841.66;;;16.84;38.96
70434;BME280;57876;47.792;12.960;2023-01-27T08:16:00;96841.19;;;16.82;38.72
70434;BME280;57876;47.792;12.960;2023-01-27T08:18:26;96844.41;;;16.84;39.00
70434;BME280;57876;47.792;12.960;2023-01-27T08:20:51;96853.38;;;16.84;39.30
70434;BME280;57876;47.792;12.960;2023-01-27T08:23:18;96844.72;;;16.82;39.06
70434;BME280;57876;47.792;12.960;2023-01-27T08:25:48;96846.31;;;16.83;38.81
70434;BME280;57876;47.792;12.960;2023-01-27T08:28:12;96856.13;;;16.84;38.75
70434;BME280;57876;47.792;12.960;2023-01-27T08:30:36;96860.63;;;16.89;38.76
70434;BME280;57876;47.792;12.960;2023-01-27T08:33:01;96854.97;;;16.85;38.58
70434;BME280;57876;47.792;12.960;2023-01-27T08:35:25;96854.34;;;16.88;38.36
70434;BME280;57876;47.792;12.960;2023-01-27T08:37:50;96853.22;;;16.89;38.93
70434;BME280;57876;47.792;12.960;2023-01-27T08:40:15;96867.38;;;16.91;39.14
70434;BME280;57876;47.792;12.960;2023-01-27T08:42:39;96859.78;;;16.88;38.82
70434;BME280;57876;47.792;12.960;2023-01-27T08:45:04;96857.06;;;16.88;38.76
70434;BME280;57876;47.792;12.960;2023-01-27T08:47:28;96870.72;;;16.88;38.97
70434;BME280;57876;47.792;12.960;2023-01-27T08:49:53;96858.19;;;16.87;38.75
70434;BME280;57876;47.792;12.960;2023-01-27T08:52:17;96857.06;;;16.88;38.97
70434;BME280;57876;47.792;12.960;2023-01-27T08:54:42;96850.97;;;16.83;38.94
70434;BME280;57876;47.792;12.960;2023-01-27T08:57:06;96864.97;;;16.81;38.94
70434;BME280;57876;47.792;12.960;2023-01-27T08:59:31;96855.63;;;16.82;38.53
70434;BME280;57876;47.792;12.960;2023-01-27T09:01:55;96860.44;;;16.85;38.43
70434;BME280;57876;47.792;12.960;2023-01-27T09:04:21;96872.03;;;16.82;38.81
70434;BME280;57876;47.792;12.960;2023-01-27T09:06:45;96875.56;;;16.83;39.23
70434;BME280;57876;47.792;12.960;2023-01-27T09:09:11;96872.03;;;16.82;38.73
70434;BME280;57876;47.792;12.960;2023-01-27T09:11:38;96875.72;;;16.86;38.66
70434;BME280;57876;47.792;12.960;2023-01-27T09:14:03;96881.50;;;16.85;38.83
70434;BME280;57876;47.792;12.960;2023-01-27T09:16:27;96881.81;;;16.83;39.02
70434;BME280;57876;47.792;12.960;2023-01-27T09:18:52;96884.53;;;16.83;38.77
70434;BME280;57876;47.792;12.960;2023-01-27T09:21:16;96885.38;;;16.84;38.90
70434;BME280;57876;47.792;12.960;2023-01-27T09:23:41;96890.84;;;16.84;38.48
70434;BME280;57876;47.792;12.960;2023-01-27T09:26:05;96894.84;;;16.86;38.55
70434;BME280;57876;47.792;12.960;2023-01-27T09:28:29;96892.75;;;16.83;38.76
70434;BME280;57876;47.792;12.960;2023-01-27T09:30:57;96884.41;;;16.80;38.72
70434;BME280;57876;47.792;12.960;2023-01-27T09:33:22;96892.59;;;16.80;38.86
70434;BME280;57876;47.792;12.960;2023-01-27T09:35:54;96894.19;;;16.81;38.74
70434;BME280;57876;47.792;12.960;2023-01-27T09:38:21;96900.00;;;16.79;39.11
70434;BME280;57876;47.792;12.960;2023-01-27T09:54:24;96898.06;;;16.80;38.68
70434;BME280;57876;47.792;12.960;2023-01-27T09:56:59;96892.28;;;16.81;39.10
70434;BME280;57876;47.792;12.960;2023-01-27T10:02:08;96898.69;;;16.85;38.93
70434;BME280;57876;47.792;12.960;2023-01-27T10:08:42;96896.59;;;16.82;38.89
70434;BME280;57876;47.792;12.960;2023-01-27T10:11:15;96892.59;;;16.80;39.01
70434;BME280;57876;47.792;12.960;2023-01-27T10:24:35;96882.94;;;16.82;38.57
70434;BME280;57876;47.792;12.960;2023-01-27T10:29:45;96878.63;;;16.81;38.40
70434;BME280;57876;47.792;12.960;2023-01-27T10:32:29;96884.06;;;16.90;38.87
70434;BME280;57876;47.792;12.960;2023-01-27T10:37:44;96875.88;;;16.90;38.60
70434;BME280;57876;47.792;12.960;2023-01-27T10:43:00;96889.69;;;16.93;38.14
70434;BME280;57876;47.792;12.960;2023-01-27T10:45:34;96883.75;;;16.91;38.67
70434;BME280;57876;47.792;12.960;2023-01-27T10:48:16;96880.06;;;16.87;38.36
70434;BME280;57876;47.792;12.960;2023-01-27T10:56:33;96869.44;;;16.86;38.16
70434;BME280;57876;47.792;12.960;2023-01-27T10:59:24;96860.13;;;16.95;37.64
70434;BME280;57876;47.792;12.960;2023-01-27T11:01:59;96865.91;;;17.03;37.63
70434;BME280;57876;47.792;12.960;2023-01-27T11:04:38;96863.66;;;17.05;37.53
70434;BME280;57876;47.792;12.960;2023-01-27T11:07:06;96866.50;;;17.17;37.48
70434;BME280;57876;47.792;12.960;2023-01-27T11:09:34;96867.81;;;17.11;37.64
70434;BME280;57876;47.792;12.960;2023-01-27T11:12:12;96874.06;;;17.11;37.73
70434;BME280;57876;47.792;12.960;2023-01-27T11:14:46;96871.50;;;17.06;37.50
70434;BME280;57876;47.792;12.960;2023-01-27T11:17:31;96870.22;;;17.04;37.44
70434;BME280;57876;47.792;12.960;2023-01-27T11:22:26;96871.38;;;17.03;37.41
70434;BME280;57876;47.792;12.960;2023-01-27T11:25:16;96862.53;;;16.97;37.75
70434;BME280;57876;47.792;12.960;2023-01-27T11:28:09;96868.13;;;17.01;37.92
70434;BME280;57876;47.792;12.960;2023-01-27T11:36:18;96865.72;;;16.99;37.82
70434;BME280;57876;47.792;12.960;2023-01-27T11:38:42;96868.63;;;17.03;37.84
70434;BME280;57876;47.792;12.960;2023-01-27T11:41:07;96874.56;;;17.05;37.99
70434;BME280;57876;47.792;12.960;2023-01-27T11:43:31;96862.81;;;17.04;37.57
70434;BME280;57876;47.792;12.960;2023-01-27T11:46:01;96869.91;;;17.05;37.71
70434;BME280;57876;47.792;12.960;2023-01-27T11:48:36;96867.97;;;17.06;37.66
70434;BME280;57876;47.792;12.960;2023-01-27T11:51:04;96853.19;;;16.98;37.69
70434;BME280;57876;47.792;12.960;2023-01-27T11:53:30;96853.69;;;17.00;38.10
70434;BME280;57876;47.792;12.960;2023-01-27T11:56:09;96845.78;;;16.99;38.12
70434;BME280;57876;47.792;12.960;2023-01-27T11:58:44;96832.66;;;16.92;37.74
70434;BME280;57876;47.792;12.960;2023-01-27T12:01:21;96840.50;;;16.93;37.85
70434;BME280;57876;47.792;12.960;2023-01-27T12:04:13;96852.06;;;16.99;38.03
70434;BME280;57876;47.792;12.960;2023-01-27T12:06:48;96831.19;;;16.94;37.93
70434;BME280;57876;47.792;12.960;2023-01-27T12:09:36;96822.03;;;16.90;37.79
70434;BME280;57876;47.792;12.960;2023-01-27T12:14:50;96834.25;;;16.93;38.15
70434;BME280;57876;47.792;12.960;2023-01-27T12:19:57;96841.78;;;16.96;37.79
70434;BME280;57876;47.792;12.960;2023-01-27T12:22:31;96829.56;;;16.93;37.82
70434;BME280;57876;47.792;12.960;2023-01-27T12:25:05;96833.94;;;16.94;37.70
70434;BME280;57876;47.792;12.960;2023-01-27T12:27:39;96843.25;;;16.93;38.21
70434;BME280;57876;47.792;12.960;2023-01-27T12:30:19;96848.53;;;16.99;37.71
70434;BME280;57876;47.792;12.960;2023-01-27T12:32:46;96837.31;;;16.91;37.92
70434;BME280;57876;47.792;12.960;2023-01-27T12:35:23;96843.41;;;16.97;37.99
70434;BME280;57876;47.792;12.960;2023-01-27T12:37:56;96834.25;;;16.93;38.27
70434;BME280;57876;47.792;12.960;2023-01-27T12:40:23;96837.47;;;16.95;37.79
70434;BME280;57876;47.792;12.960;2023-01-27T12:42:50;96835.53;;;16.95;37.87
70434;BME280;57876;47.792;12.960;2023-01-27T12:45:31;96843.06;;;16.99;37.69
70434;BME280;57876;47.792;12.960;2023-01-27T12:50:28;96819.31;;;16.90;38.33
70434;BME280;57876;47.792;12.960;2023-01-27T12:53:14;96836.00;;;16.98;37.62
70434;BME280;57876;47.792;12.960;2023-01-27T13:01:05;96825.25;;;16.92;38.10
70434;BME280;57876;47.792;12.960;2023-01-27T13:03:31;96824.44;;;16.92;37.81
70434;BME280;57876;47.792;12.960;2023-01-27T13:06:01;96837.47;;;16.95;38.22
70434;BME280;57876;47.792;12.960;2023-01-27T13:08:27;96825.56;;;16.91;38.24
70434;BME280;57876;47.792;12.960;2023-01-27T13:10:58;96827.19;;;16.92;38.18
70434;BME280;57876;47.792;12.960;2023-01-27T13:13:28;96832.31;;;16.93;37.96
70434;BME280;57876;47.792;12.960;2023-01-27T13:15:58;96833.94;;;16.94;38.13
70434;BME280;57876;47.792;12.960;2023-01-27T13:18:35;96837.13;;;16.97;37.76
70434;BME280;57876;47.792;12.960;2023-01-27T13:21:14;96843.06;;;16.99;38.17
70434;BME280;57876;47.792;12.960;2023-01-27T13:23:39;96844.84;;;16.94;38.21
70434;BME280;57876;47.792;12.960;2023-01-27T13:33:59;96848.25;;;16.91;38.24
70434;BME280;57876;47.792;12.960;2023-01-27T13:36:44;96852.22;;;16.94;37.99
70434;BME280;57876;47.792;12.960;2023-01-27T13:39:24;96856.91;;;16.93;37.88
70434;BME280;57876;47.792;12.960;2023-01-27T13:42:01;96859.31;;;16.95;38.25
70434;BME280;57876;47.792;12.960;2023-01-27T13:47:26;96846.63;;;16.90;38.45
70434;BME280;57876;47.792;12.960;2023-01-27T13:50:04;96840.50;;;16.93;37.98
70434;BME280;57876;47.792;12.960;2023-01-27T13:52:37;96839.06;;;16.96;38.12
70434;BME280;57876;47.792;12.960;2023-01-27T13:55:01;96840.84;;;16.92;38.33
70434;BME280;57876;47.792;12.960;2023-01-27T13:57:53;96851.59;;;16.97;37.93
70434;BME280;57876;47.792;12.960;2023-01-27T14:00:30;96845.97;;;16.93;37.91
70434;BME280;57876;47.792;12.960;2023-01-27T14:09:18;96856.25;;;16.97;38.15
70434;BME280;57876;47.792;12.960;2023-01-27T14:12:12;96862.19;;;16.99;38.17
70434;BME280;57876;47.792;12.960;2023-01-27T14:20:26;96857.22;;;17.01;38.29
70434;BME280;57876;47.792;12.960;2023-01-27T14:23:08;96856.25;;;16.97;38.34
70434;BME280;57876;47.792;12.960;2023-01-27T14:25:56;96862.69;;;17.01;38.01
70434;BME280;57876;47.792;12.960;2023-01-27T14:31:14;96853.06;;;16.94;37.98
70434;BME280;57876;47.792;12.960;2023-01-27T14:36:24;96855.63;;;16.91;37.78